MPDA/DAV METAR and TAF weather

Enter ICAO airport designator
Station Type Date Time Source
MPDA METAR 2022/07/03 14:00 UTC NOAA

MPDA 031400Z VRB01KT 9999 SCT014 27/24 Q1011


Station Type Date Time Source
MPDA Decoded METAR 2022/07/03 14:00 UTC NOAA

David, Panama (MPDA) 08-24N 082-25W 26M
Jul 03, 2022 - 10:00 AM EDT / 2022.07.03 1400 UTC
Wind: Variable at 1 MPH (1 KT):0
Visibility: greater than 7 mile(s):0
Sky conditions: partly cloudy
Temperature: 80 F (27 C)
Dew Point: 75 F (24 C)
Relative Humidity: 83%
Pressure (altimeter): 29.85 in. Hg (1011 hPa)
ob: MPDA 031400Z VRB01KT 9999 SCT014 27/24 Q1011
cycle: 14

Station Type Date Time Source
MPDA TAF 2022/07/03 12:06 UTC NOAA

TAF TAF MPDA 031100Z 0312/0324 22007KT 9999 SCT018 PROB40 0312/0316 6000 TSRA SCT015CB BKN090
TEMPO 0418/04122 5000 TSRA SCT015CB BKN090

Example: see airport list